sensor_id;sensor_type;location;lat;lon;timestamp;temperature;humidity
24682;DHT22;12802;53.390;-2.328;2023-10-13T00:01:07;12.50;99.90
24682;DHT22;12802;53.390;-2.328;2023-10-13T00:03:33;12.50;99.90
24682;DHT22;12802;53.390;-2.328;2023-10-13T00:05:59;12.50;99.90
24682;DHT22;12802;53.390;-2.328;2023-10-13T00:08:29;12.50;99.90
24682;DHT22;12802;53.390;-2.328;2023-10-13T00:10:56;12.50;99.90
24682;DHT22;12802;53.390;-2.328;2023-10-13T00:13:29;12.50;99.90
24682;DHT22;12802;53.390;-2.328;2023-10-13T00:15:59;12.50;99.90
24682;DHT22;12802;53.390;-2.328;2023-10-13T00:30:53;12.50;99.90
24682;DHT22;12802;53.390;-2.328;2023-10-13T00:56:01;12.50;99.90
24682;DHT22;12802;53.390;-2.328;2023-10-13T00:58:36;12.40;99.90
24682;DHT22;12802;53.390;-2.328;2023-10-13T01:01:05;12.50;99.90
24682;DHT22;12802;53.390;-2.328;2023-10-13T01:03:52;12.40;99.90
24682;DHT22;12802;53.390;-2.328;2023-10-13T01:06:23;12.50;99.90
24682;DHT22;12802;53.390;-2.328;2023-10-13T01:09:00;12.40;99.90
24682;DHT22;12802;53.390;-2.328;2023-10-13T02:21:12;12.60;99.90
24682;DHT22;12802;53.390;-2.328;2023-10-13T02:23:42;12.60;99.90
24682;DHT22;12802;53.390;-2.328;2023-10-13T02:26:14;12.60;99.90
24682;DHT22;12802;53.390;-2.328;2023-10-13T02:28:42;12.60;99.90
24682;DHT22;12802;53.390;-2.328;2023-10-13T02:31:09;12.60;99.90
24682;DHT22;12802;53.390;-2.328;2023-10-13T02:33:37;12.70;99.90
24682;DHT22;12802;53.390;-2.328;2023-10-13T02:36:11;12.70;99.90
24682;DHT22;12802;53.390;-2.328;2023-10-13T02:38:38;12.70;99.90
24682;DHT22;12802;53.390;-2.328;2023-10-13T02:41:14;12.60;99.90
24682;DHT22;12802;53.390;-2.328;2023-10-13T02:43:54;12.60;99.90
24682;DHT22;12802;53.390;-2.328;2023-10-13T02:46:21;12.70;99.90
24682;DHT22;12802;53.390;-2.328;2023-10-13T02:48:49;12.70;99.90
24682;DHT22;12802;53.390;-2.328;2023-10-13T02:51:23;12.70;99.90
24682;DHT22;12802;53.390;-2.328;2023-10-13T02:53:57;12.70;99.90
24682;DHT22;12802;53.390;-2.328;2023-10-13T02:56:29;12.70;99.90
24682;DHT22;12802;53.390;-2.328;2023-10-13T02:58:55;12.80;99.90
24682;DHT22;12802;53.390;-2.328;2023-10-13T03:01:33;12.80;99.90
24682;DHT22;12802;53.390;-2.328;2023-10-13T03:04:00;12.80;99.90
24682;DHT22;12802;53.390;-2.328;2023-10-13T03:06:27;12.80;99.90
24682;DHT22;12802;53.390;-2.328;2023-10-13T03:09:01;12.90;99.90
24682;DHT22;12802;53.390;-2.328;2023-10-13T03:11:40;12.90;99.90
24682;DHT22;12802;53.390;-2.328;2023-10-13T03:14:11;12.90;99.90
24682;DHT22;12802;53.390;-2.328;2023-10-13T03:16:51;12.90;99.90
24682;DHT22;12802;53.390;-2.328;2023-10-13T03:19:17;12.90;99.90
24682;DHT22;12802;53.390;-2.328;2023-10-13T03:21:45;12.90;99.90
24682;DHT22;12802;53.390;-2.328;2023-10-13T03:27:00;14.10;99.90
24682;DHT22;12802;53.390;-2.328;2023-10-13T03:34:39;13.00;99.90
24682;DHT22;12802;53.390;-2.328;2023-10-13T03:37:18;13.00;99.90
24682;DHT22;12802;53.390;-2.328;2023-10-13T03:42:12;13.10;99.90
24682;DHT22;12802;53.390;-2.328;2023-10-13T03:44:47;13.00;99.90
24682;DHT22;12802;53.390;-2.328;2023-10-13T03:47:14;13.10;99.90
24682;DHT22;12802;53.390;-2.328;2023-10-13T03:49:53;13.10;99.90
24682;DHT22;12802;53.390;-2.328;2023-10-13T03:52:39;13.10;99.90
24682;DHT22;12802;53.390;-2.328;2023-10-13T03:55:05;13.20;99.90
24682;DHT22;12802;53.390;-2.328;2023-10-13T03:57:32;13.20;99.90
24682;DHT22;12802;53.390;-2.328;2023-10-13T04:02:37;13.10;99.90
24682;DHT22;12802;53.390;-2.328;2023-10-13T04:05:03;13.20;99.90
24682;DHT22;12802;53.390;-2.328;2023-10-13T04:07:44;13.20;99.90
24682;DHT22;12802;53.390;-2.328;2023-10-13T04:10:28;13.20;99.90
24682;DHT22;12802;53.390;-2.328;2023-10-13T04:13:13;13.10;99.90
24682;DHT22;12802;53.390;-2.328;2023-10-13T04:15:58;13.20;99.90
24682;DHT22;12802;53.390;-2.328;2023-10-13T04:21:24;13.20;99.90
24682;DHT22;12802;53.390;-2.328;2023-10-13T04:24:06;13.20;99.90
24682;DHT22;12802;53.390;-2.328;2023-10-13T04:26:55;13.30;99.90
24682;DHT22;12802;53.390;-2.328;2023-10-13T04:29:46;13.30;99.90
24682;DHT22;12802;53.390;-2.328;2023-10-13T04:34:56;13.20;99.90
24682;DHT22;12802;53.390;-2.328;2023-10-13T04:37:42;13.20;99.90
24682;DHT22;12802;53.390;-2.328;2023-10-13T04:40:19;13.30;99.90
24682;DHT22;12802;53.390;-2.328;2023-10-13T04:42:51;13.30;99.90
24682;DHT22;12802;53.390;-2.328;2023-10-13T04:45:23;13.30;99.90
24682;DHT22;12802;53.390;-2.328;2023-10-13T04:48:02;13.30;99.90
24682;DHT22;12802;53.390;-2.328;2023-10-13T04:53:16;13.40;99.90
24682;DHT22;12802;53.390;-2.328;2023-10-13T05:04:28;13.50;99.90
24682;DHT22;12802;53.390;-2.328;2023-10-13T05:07:13;13.40;99.90
24682;DHT22;12802;53.390;-2.328;2023-10-13T05:09:57;13.40;99.90
24682;DHT22;12802;53.390;-2.328;2023-10-13T05:12:42;13.40;99.90
24682;DHT22;12802;53.390;-2.328;2023-10-13T05:15:27;13.30;99.90
24682;DHT22;12802;53.390;-2.328;2023-10-13T05:18:11;13.30;99.90
24682;DHT22;12802;53.390;-2.328;2023-10-13T05:20:55;13.40;99.90
24682;DHT22;12802;53.390;-2.328;2023-10-13T05:23:54;13.40;99.90
24682;DHT22;12802;53.390;-2.328;2023-10-13T05:26:38;13.40;99.90
24682;DHT22;12802;53.390;-2.328;2023-10-13T05:29:22;13.40;99.90
24682;DHT22;12802;53.390;-2.328;2023-10-13T05:32:07;13.40;99.90
24682;DHT22;12802;53.390;-2.328;2023-10-13T05:34:51;13.40;99.90
24682;DHT22;12802;53.390;-2.328;2023-10-13T05:37:35;13.50;99.90
24682;DHT22;12802;53.390;-2.328;2023-10-13T05:40:20;13.40;99.90
24682;DHT22;12802;53.390;-2.328;2023-10-13T05:43:04;13.30;99.90
24682;DHT22;12802;53.390;-2.328;2023-10-13T05:45:49;13.40;99.90
24682;DHT22;12802;53.390;-2.328;2023-10-13T05:48:33;13.40;99.90
24682;DHT22;12802;53.390;-2.328;2023-10-13T05:51:17;13.50;99.90
24682;DHT22;12802;53.390;-2.328;2023-10-13T05:54:02;13.30;99.90
24682;DHT22;12802;53.390;-2.328;2023-10-13T05:59:29;13.30;99.90
24682;DHT22;12802;53.390;-2.328;2023-10-13T06:02:14;13.30;99.90
24682;DHT22;12802;53.390;-2.328;2023-10-13T06:07:51;13.40;99.90
24682;DHT22;12802;53.390;-2.328;2023-10-13T06:10:36;13.40;99.90
24682;DHT22;12802;53.390;-2.328;2023-10-13T06:13:21;13.40;99.90
24682;DHT22;12802;53.390;-2.328;2023-10-13T06:16:16;13.50;99.90
24682;DHT22;12802;53.390;-2.328;2023-10-13T06:21:46;13.40;99.90
24682;DHT22;12802;53.390;-2.328;2023-10-13T11:12:54;13.00;99.90
24682;DHT22;12802;53.390;-2.328;2023-10-13T11:15:20;13.00;99.90
24682;DHT22;12802;53.390;-2.328;2023-10-13T11:17:59;13.00;99.90
24682;DHT22;12802;53.390;-2.328;2023-10-13T11:20:24;12.90;99.90
24682;DHT22;12802;53.390;-2.328;2023-10-13T11:22:59;12.90;99.90
24682;DHT22;12802;53.390;-2.328;2023-10-13T11:25:34;12.90;99.90
24682;DHT22;12802;53.390;-2.328;2023-10-13T11:28:18;12.80;99.90
24682;DHT22;12802;53.390;-2.328;2023-10-13T11:30:53;12.70;99.90
24682;DHT22;12802;53.390;-2.328;2023-10-13T11:33:25;12.60;99.90
24682;DHT22;12802;53.390;-2.328;2023-10-13T11:35:53;12.50;99.90
24682;DHT22;12802;53.390;-2.328;2023-10-13T11:45:53;12.30;99.90
24682;DHT22;12802;53.390;-2.328;2023-10-13T11:48:34;12.20;99.90
24682;DHT22;12802;53.390;-2.328;2023-10-13T11:51:02;12.20;99.90
24682;DHT22;12802;53.390;-2.328;2023-10-13T11:53:38;12.30;99.90
24682;DHT22;12802;53.390;-2.328;2023-10-13T11:56:05;12.30;99.90
24682;DHT22;12802;53.390;-2.328;2023-10-13T12:03:37;12.10;99.90
24682;DHT22;12802;53.390;-2.328;2023-10-13T12:06:21;12.10;99.90
24682;DHT22;12802;53.390;-2.328;2023-10-13T12:09:10;12.10;99.90
24682;DHT22;12802;53.390;-2.328;2023-10-13T12:11:42;12.10;99.90
24682;DHT22;12802;53.390;-2.328;2023-10-13T12:14:08;12.10;99.90
24682;DHT22;12802;53.390;-2.328;2023-10-13T12:16:45;12.20;99.90
24682;DHT22;12802;53.390;-2.328;2023-10-13T12:19:23;12.20;99.90
24682;DHT22;12802;53.390;-2.328;2023-10-13T12:21:57;12.50;99.90
24682;DHT22;12802;53.390;-2.328;2023-10-13T12:24:24;12.10;99.90
24682;DHT22;12802;53.390;-2.328;2023-10-13T12:27:09;12.10;99.90
24682;DHT22;12802;53.390;-2.328;2023-10-13T12:30:01;12.10;99.90
24682;DHT22;12802;53.390;-2.328;2023-10-13T12:32:36;12.10;99.90
24682;DHT22;12802;53.390;-2.328;2023-10-13T12:35:02;12.10;99.90
24682;DHT22;12802;53.390;-2.328;2023-10-13T12:37:31;12.20;99.90
24682;DHT22;12802;53.390;-2.328;2023-10-13T12:40:13;12.20;99.90
24682;DHT22;12802;53.390;-2.328;2023-10-13T12:42:57;12.20;99.90
24682;DHT22;12802;53.390;-2.328;2023-10-13T12:45:43;12.30;99.90
24682;DHT22;12802;53.390;-2.328;2023-10-13T12:48:28;12.40;99.90
24682;DHT22;12802;53.390;-2.328;2023-10-13T12:53:48;12.40;99.90
24682;DHT22;12802;53.390;-2.328;2023-10-13T12:56:14;12.30;99.90
24682;DHT22;12802;53.390;-2.328;2023-10-13T12:58:46;12.30;99.90
24682;DHT22;12802;53.390;-2.328;2023-10-13T13:01:22;12.30;99.90
24682;DHT22;12802;53.390;-2.328;2023-10-13T13:06:24;12.20;99.90
24682;DHT22;12802;53.390;-2.328;2023-10-13T13:26:05;12.00;99.90
24682;DHT22;12802;53.390;-2.328;2023-10-13T13:28:48;12.00;99.90
24682;DHT22;12802;53.390;-2.328;2023-10-13T13:31:18;12.00;99.90
24682;DHT22;12802;53.390;-2.328;2023-10-13T13:33:43;12.10;99.90
24682;DHT22;12802;53.390;-2.328;2023-10-13T13:36:10;11.90;99.90
24682;DHT22;12802;53.390;-2.328;2023-10-13T13:38:39;12.10;99.90
24682;DHT22;12802;53.390;-2.328;2023-10-13T13:41:14;12.20;99.90
24682;DHT22;12802;53.390;-2.328;2023-10-13T16:57:59;11.50;99.90
24682;DHT22;12802;53.390;-2.328;2023-10-13T17:00:25;11.50;99.90
24682;DHT22;12802;53.390;-2.328;2023-10-13T17:02:53;11.40;99.90
24682;DHT22;12802;53.390;-2.328;2023-10-13T17:05:18;11.40;99.90
24682;DHT22;12802;53.390;-2.328;2023-10-13T17:07:45;11.40;99.90
24682;DHT22;12802;53.390;-2.328;2023-10-13T17:10:14;11.40;99.90
24682;DHT22;12802;53.390;-2.328;2023-10-13T17:12:41;11.30;99.90
24682;DHT22;12802;53.390;-2.328;2023-10-13T17:15:07;11.30;99.90
24682;DHT22;12802;53.390;-2.328;2023-10-13T17:17:46;11.30;99.90
24682;DHT22;12802;53.390;-2.328;2023-10-13T17:20:12;11.30;99.90
24682;DHT22;12802;53.390;-2.328;2023-10-13T17:22:38;11.30;99.90
24682;DHT22;12802;53.390;-2.328;2023-10-13T17:25:06;11.30;99.90
24682;DHT22;12802;53.390;-2.328;2023-10-13T17:27:32;11.30;99.90
24682;DHT22;12802;53.390;-2.328;2023-10-13T17:30:01;11.30;99.90
24682;DHT22;12802;53.390;-2.328;2023-10-13T17:32:26;11.30;99.90
24682;DHT22;12802;53.390;-2.328;2023-10-13T17:34:52;11.20;99.90
24682;DHT22;12802;53.390;-2.328;2023-10-13T17:37:18;11.30;99.90
24682;DHT22;12802;53.390;-2.328;2023-10-13T17:39:43;11.30;99.90
24682;DHT22;12802;53.390;-2.328;2023-10-13T17:44:39;11.00;99.90
24682;DHT22;12802;53.390;-2.328;2023-10-13T17:59:28;11.30;99.90
24682;DHT22;12802;53.390;-2.328;2023-10-13T18:01:54;11.30;99.90
24682;DHT22;12802;53.390;-2.328;2023-10-13T18:04:20;11.20;99.90
24682;DHT22;12802;53.390;-2.328;2023-10-13T18:06:46;11.20;99.90
24682;DHT22;12802;53.390;-2.328;2023-10-13T18:09:12;11.20;99.90
24682;DHT22;12802;53.390;-2.328;2023-10-13T18:11:38;11.10;99.90
24682;DHT22;12802;53.390;-2.328;2023-10-13T18:14:04;11.10;99.90
24682;DHT22;12802;53.390;-2.328;2023-10-13T18:38:54;10.90;99.90
24682;DHT22;12802;53.390;-2.328;2023-10-13T18:41:25;10.90;99.90
24682;DHT22;12802;53.390;-2.328;2023-10-13T18:51:23;10.80;99.90
24682;DHT22;12802;53.390;-2.328;2023-10-13T18:53:50;10.80;99.90
24682;DHT22;12802;53.390;-2.328;2023-10-13T18:56:18;10.80;99.90
24682;DHT22;12802;53.390;-2.328;2023-10-13T18:58:48;10.80;99.90
24682;DHT22;12802;53.390;-2.328;2023-10-13T19:01:22;10.90;99.90
24682;DHT22;12802;53.390;-2.328;2023-10-13T19:03:58;10.80;99.90
24682;DHT22;12802;53.390;-2.328;2023-10-13T19:06:26;10.80;99.90
24682;DHT22;12802;53.390;-2.328;2023-10-13T19:08:55;10.80;99.90
24682;DHT22;12802;53.390;-2.328;2023-10-13T19:11:22;10.80;99.90
24682;DHT22;12802;53.390;-2.328;2023-10-13T19:13:48;10.80;99.90
24682;DHT22;12802;53.390;-2.328;2023-10-13T19:16:23;10.70;99.90
24682;DHT22;12802;53.390;-2.328;2023-10-13T19:18:51;10.70;99.90
24682;DHT22;12802;53.390;-2.328;2023-10-13T19:21:19;10.70;99.90
24682;DHT22;12802;53.390;-2.328;2023-10-13T19:23:46;10.80;99.90
24682;DHT22;12802;53.390;-2.328;2023-10-13T19:26:14;10.80;99.90
24682;DHT22;12802;53.390;-2.328;2023-10-13T19:28:41;10.70;99.90
24682;DHT22;12802;53.390;-2.328;2023-10-13T19:31:10;10.70;99.90
24682;DHT22;12802;53.390;-2.328;2023-10-13T19:33:45;10.60;99.90
24682;DHT22;12802;53.390;-2.328;2023-10-13T19:36:13;10.60;99.90
24682;DHT22;12802;53.390;-2.328;2023-10-13T19:38:39;10.60;99.90
24682;DHT22;12802;53.390;-2.328;2023-10-13T19:46:22;10.70;99.90
24682;DHT22;12802;53.390;-2.328;2023-10-13T19:48:48;10.70;99.90
24682;DHT22;12802;53.390;-2.328;2023-10-13T19:51:14;10.70;99.90
24682;DHT22;12802;53.390;-2.328;2023-10-13T19:53:41;10.70;99.90
24682;DHT22;12802;53.390;-2.328;2023-10-13T19:56:14;10.70;99.90
24682;DHT22;12802;53.390;-2.328;2023-10-13T19:58:41;10.60;99.90
24682;DHT22;12802;53.390;-2.328;2023-10-13T20:01:12;10.60;99.90
24682;DHT22;12802;53.390;-2.328;2023-10-13T20:03:45;10.60;99.90
24682;DHT22;12802;53.390;-2.328;2023-10-13T20:06:11;10.60;99.90
24682;DHT22;12802;53.390;-2.328;2023-10-13T20:08:38;10.70;99.90
24682;DHT22;12802;53.390;-2.328;2023-10-13T20:11:07;10.60;99.90
24682;DHT22;12802;53.390;-2.328;2023-10-13T20:13:38;10.80;99.90
24682;DHT22;12802;53.390;-2.328;2023-10-13T20:16:05;10.70;99.90
24682;DHT22;12802;53.390;-2.328;2023-10-13T20:18:34;10.70;99.90
24682;DHT22;12802;53.390;-2.328;2023-10-13T20:21:01;10.80;99.90
24682;DHT22;12802;53.390;-2.328;2023-10-13T20:23:27;10.80;99.90
24682;DHT22;12802;53.390;-2.328;2023-10-13T21:15:12;10.30;99.90
24682;DHT22;12802;53.390;-2.328;2023-10-13T21:17:44;10.20;99.90
24682;DHT22;12802;53.390;-2.328;2023-10-13T21:20:12;10.20;99.90
24682;DHT22;12802;53.390;-2.328;2023-10-13T21:22:48;10.30;99.90
24682;DHT22;12802;53.390;-2.328;2023-10-13T21:25:17;10.30;99.90
24682;DHT22;12802;53.390;-2.328;2023-10-13T21:27:57;10.20;99.90
24682;DHT22;12802;53.390;-2.328;2023-10-13T21:30:27;10.20;99.90
24682;DHT22;12802;53.390;-2.328;2023-10-13T21:32:54;10.20;99.90
24682;DHT22;12802;53.390;-2.328;2023-10-13T21:35:24;10.10;99.90
24682;DHT22;12802;53.390;-2.328;2023-10-13T21:45:20;10.10;99.90
24682;DHT22;12802;53.390;-2.328;2023-10-13T21:50:13;10.10;99.90
24682;DHT22;12802;53.390;-2.328;2023-10-13T21:52:43;10.00;99.90
24682;DHT22;12802;53.390;-2.328;2023-10-13T21:55:09;9.90;99.90
24682;DHT22;12802;53.390;-2.328;2023-10-13T22:03:07;9.70;99.90
24682;DHT22;12802;53.390;-2.328;2023-10-13T22:05:32;9.70;99.90
24682;DHT22;12802;53.390;-2.328;2023-10-13T22:10:28;9.60;99.90
24682;DHT22;12802;53.390;-2.328;2023-10-13T22:12:53;9.70;99.90
24682;DHT22;12802;53.390;-2.328;2023-10-13T22:15:22;9.60;99.90
24682;DHT22;12802;53.390;-2.328;2023-10-13T22:22:48;9.40;99.90
24682;DHT22;12802;53.390;-2.328;2023-10-13T22:25:15;9.50;99.90
24682;DHT22;12802;53.390;-2.328;2023-10-13T22:27:42;9.60;99.90
24682;DHT22;12802;53.390;-2.328;2023-10-13T22:30:10;9.70;99.90
24682;DHT22;12802;53.390;-2.328;2023-10-13T23:07:54;10.20;99.90
24682;DHT22;12802;53.390;-2.328;2023-10-13T23:10:26;10.20;99.90
24682;DHT22;12802;53.390;-2.328;2023-10-13T23:13:19;10.10;99.90
24682;DHT22;12802;53.390;-2.328;2023-10-13T23:15:49;10.10;99.90
24682;DHT22;12802;53.390;-2.328;2023-10-13T23:18:15;10.10;99.90
24682;DHT22;12802;53.390;-2.328;2023-10-13T23:20:44;10.10;99.90
24682;DHT22;12802;53.390;-2.328;2023-10-13T23:23:11;10.10;99.90
24682;DHT22;12802;53.390;-2.328;2023-10-13T23:25:37;10.10;99.90
24682;DHT22;12802;53.390;-2.328;2023-10-13T23:28:08;10.10;99.90
24682;DHT22;12802;53.390;-2.328;2023-10-13T23:30:35;10.10;99.90
24682;DHT22;12802;53.390;-2.328;2023-10-13T23:33:02;10.00;99.90
24682;DHT22;12802;53.390;-2.328;2023-10-13T23:35:28;10.00;99.90
24682;DHT22;12802;53.390;-2.328;2023-10-13T23:38:02;10.00;99.90
24682;DHT22;12802;53.390;-2.328;2023-10-13T23:40:51;10.00;99.90
24682;DHT22;12802;53.390;-2.328;2023-10-13T23:43:17;10.00;99.90
24682;DHT22;12802;53.390;-2.328;2023-10-13T23:45:52;10.00;99.90
24682;DHT22;12802;53.390;-2.328;2023-10-13T23:48:28;10.00;99.90
24682;DHT22;12802;53.390;-2.328;2023-10-13T23:50:55;10.00;99.90
24682;DHT22;12802;53.390;-2.328;2023-10-13T23:53:29;9.90;99.90
24682;DHT22;12802;53.390;-2.328;2023-10-13T23:55:56;9.90;99.90
24682;DHT22;12802;53.390;-2.328;2023-10-13T23:58:30;9.90;99.90
